Time;durP1;ratioP1;P1;durP2;ratioP2;P2;SDS_P1;SDS_P2;PMS_P1;PMS_P2;Temp;Humidity;BMP_temperature;BMP_pressure;BME280_temperature;BME280_humidity;BME280_pressure;Samples;Min_cycle;Max_cycle;Signal;HPM_P1;HPM_P2
2022/05/13 00:00:11;;;;;;;10.53;5.30;;;15.80;99.90;;;;;;5086055;28;20427;-59
2022/05/13 00:02:37;;;;;;;5.83;5.10;;;15.80;99.90;;;;;;5106346;28;20214;-60
2022/05/13 00:05:07;;;;;;;6.93;4.63;;;15.80;99.90;;;;;;5106842;28;20431;-58
2022/05/13 00:07:33;;;;;;;6.30;4.07;;;15.70;99.90;;;;;;5110894;28;20264;-60
2022/05/13 00:10:01;;;;;;;5.40;4.40;;;15.70;99.90;;;;;;5108579;27;20431;-60
2022/05/13 00:12:33;;;;;;;6.00;4.30;;;15.70;99.90;;;;;;5114176;27;20502;-60
2022/05/13 00:15:00;;;;;;;4.93;4.40;;;15.70;99.90;;;;;;5097090;28;20431;-60
2022/05/13 00:17:27;;;;;;;5.97;4.60;;;15.70;99.90;;;;;;5109952;28;20431;-60
2022/05/13 00:19:53;;;;;;;5.10;4.20;;;15.60;99.90;;;;;;5115073;27;21430;-59
2022/05/13 00:22:20;;;;;;;7.00;4.70;;;15.60;99.90;;;;;;5104073;28;20539;-60
2022/05/13 00:24:46;;;;;;;5.00;4.50;;;15.60;99.90;;;;;;5108418;27;20431;-60
2022/05/13 00:27:12;;;;;;;4.87;4.33;;;15.60;99.90;;;;;;5105791;28;21083;-60
2022/05/13 00:29:37;;;;;;;6.70;4.07;;;15.60;99.90;;;;;;5108106;28;20438;-60
2022/05/13 00:32:04;;;;;;;6.57;4.37;;;15.60;99.90;;;;;;5107319;28;20231;-60
2022/05/13 00:34:30;;;;;;;8.73;5.30;;;15.60;99.90;;;;;;5109808;27;20189;-60
2022/05/13 00:36:55;;;;;;;6.23;4.63;;;15.50;99.90;;;;;;5108330;28;20441;-60
2022/05/13 00:39:21;;;;;;;7.30;4.53;;;15.60;99.90;;;;;;5105826;28;20435;-59
2022/05/13 00:41:47;;;;;;;7.30;5.07;;;15.60;99.90;;;;;;5110560;27;20201;-61
2022/05/13 00:44:13;;;;;;;8.63;4.90;;;15.50;99.90;;;;;;5100936;28;20185;-60
2022/05/13 00:46:40;;;;;;;10.73;5.00;;;15.50;99.90;;;;;;5106948;28;20637;-60
2022/05/13 00:49:11;;;;;;;7.90;4.70;;;15.50;99.90;;;;;;5100409;28;20434;-61
2022/05/13 00:51:41;;;;;;;7.80;5.10;;;15.50;99.90;;;;;;5100665;28;20455;-60
2022/05/13 00:54:08;;;;;;;9.50;4.90;;;15.50;99.90;;;;;;5086291;28;20860;-60
2022/05/13 00:56:35;;;;;;;6.73;4.33;;;15.50;99.90;;;;;;5099182;28;20428;-59
2022/05/13 00:59:04;;;;;;;9.13;5.40;;;15.50;99.90;;;;;;5092428;28;20422;-61
2022/05/13 01:01:30;;;;;;;8.57;4.60;;;15.50;99.90;;;;;;5101090;28;20485;-61
2022/05/13 01:04:03;;;;;;;9.83;5.50;;;15.50;99.90;;;;;;5108222;28;20403;-59
2022/05/13 01:06:29;;;;;;;5.23;4.60;;;15.50;99.90;;;;;;5112592;27;20238;-60
2022/05/13 01:08:56;;;;;;;6.40;4.77;;;15.50;99.90;;;;;;5088967;28;20419;-60
2022/05/13 01:11:26;;;;;;;5.57;5.03;;;15.50;99.90;;;;;;5106692;28;22195;-60
2022/05/13 01:14:00;;;;;;;5.00;4.50;;;15.50;99.90;;;;;;5091678;28;20463;-61
2022/05/13 01:16:25;;;;;;;7.20;5.33;;;15.40;99.90;;;;;;5097471;28;20442;-61
2022/05/13 01:18:51;;;;;;;9.60;5.43;;;15.40;99.90;;;;;;5107421;28;20439;-59
2022/05/13 01:21:29;;;;;;;11.13;5.27;;;15.40;99.90;;;;;;5101967;28;20233;-59
2022/05/13 01:23:54;;;;;;;5.80;4.33;;;15.40;99.90;;;;;;5101914;28;20168;-59
2022/05/13 01:26:26;;;;;;;5.57;4.70;;;15.40;99.90;;;;;;5106265;28;20503;-59
2022/05/13 01:28:54;;;;;;;5.67;4.87;;;15.40;99.90;;;;;;5106752;28;20241;-60
2022/05/13 01:31:35;;;;;;;8.30;4.90;;;15.40;99.90;;;;;;5101851;28;20922;-59
2022/05/13 01:34:06;;;;;;;6.17;5.53;;;15.40;99.90;;;;;;5090071;28;20421;-58
2022/05/13 01:36:32;;;;;;;5.97;5.37;;;15.40;99.90;;;;;;5087075;28;20427;-60
2022/05/13 01:38:59;;;;;;;5.50;5.00;;;15.40;99.90;;;;;;5098507;28;20408;-61
2022/05/13 01:41:25;;;;;;;6.77;4.93;;;15.40;99.90;;;;;;5112681;28;20501;-59
2022/05/13 01:43:51;;;;;;;7.13;5.40;;;15.40;99.90;;;;;;5103439;28;20443;-59
2022/05/13 01:46:18;;;;;;;7.10;5.60;;;15.40;99.90;;;;;;5082642;28;20434;-59
2022/05/13 01:48:45;;;;;;;11.13;5.30;;;15.40;99.90;;;;;;5105191;28;20430;-59
2022/05/13 01:51:11;;;;;;;6.20;5.47;;;15.40;99.90;;;;;;5107573;28;20455;-60
2022/05/13 01:53:37;;;;;;;6.20;5.27;;;15.40;99.90;;;;;;5107701;28;20804;-59
2022/05/13 01:56:03;;;;;;;10.50;5.10;;;15.40;99.90;;;;;;5104357;28;20435;-60
2022/05/13 01:58:29;;;;;;;7.40;6.37;;;15.30;99.90;;;;;;5106950;28;20241;-59
2022/05/13 02:00:57;;;;;;;6.33;5.63;;;15.30;99.90;;;;;;5097818;28;20443;-59
2022/05/13 02:06:08;;;;;;;7.27;5.60;;;15.30;99.90;;;;;;5105881;28;20436;-59
2022/05/13 02:08:35;;;;;;;7.20;4.90;;;15.30;99.90;;;;;;5102608;28;20427;-60
2022/05/13 02:11:02;;;;;;;8.43;5.37;;;15.20;99.90;;;;;;5109178;28;20224;-60
2022/05/13 02:13:28;;;;;;;6.80;4.90;;;15.30;99.90;;;;;;5099619;28;20433;-60
2022/05/13 02:15:54;;;;;;;7.10;5.53;;;15.30;99.90;;;;;;5099720;28;20454;-60
2022/05/13 02:18:21;;;;;;;7.70;5.67;;;15.30;99.90;;;;;;5107810;28;20466;-60
2022/05/13 02:20:47;;;;;;;9.43;5.97;;;15.20;99.90;;;;;;5104475;28;20750;-61
2022/05/13 02:23:14;;;;;;;6.50;5.80;;;15.20;99.90;;;;;;5102688;28;20966;-59
2022/05/13 02:25:40;;;;;;;6.43;5.47;;;15.20;99.90;;;;;;5097196;28;20791;-60
2022/05/13 02:28:06;;;;;;;7.97;5.43;;;15.20;99.90;;;;;;5100369;28;20435;-59
2022/05/13 02:30:32;;;;;;;6.43;5.73;;;15.20;99.90;;;;;;5095414;28;20515;-60
2022/05/13 02:32:58;;;;;;;8.63;5.60;;;15.30;99.90;;;;;;5099832;28;21645;-59
2022/05/13 02:35:24;;;;;;;6.20;5.17;;;15.20;99.90;;;;;;5100664;28;20915;-59
2022/05/13 02:37:50;;;;;;;7.13;5.53;;;15.20;99.90;;;;;;5112212;28;20173;-60
2022/05/13 02:40:17;;;;;;;7.00;5.20;;;15.30;99.90;;;;;;5108569;28;20453;-60
2022/05/13 02:42:42;;;;;;;8.53;5.10;;;15.30;99.90;;;;;;5107767;28;20258;-59
2022/05/13 02:45:09;;;;;;;7.23;5.40;;;15.30;99.90;;;;;;5093611;27;20906;-60
2022/05/13 02:47:39;;;;;;;5.50;5.00;;;15.30;99.90;;;;;;5100971;28;20665;-60
2022/05/13 02:50:19;;;;;;;14.80;9.00;;;15.30;99.90;;;;;;5112043;27;20526;-59
2022/05/13 02:52:45;;;;;;;6.60;6.00;;;15.30;99.90;;;;;;5104760;28;20437;-60
2022/05/13 02:55:11;;;;;;;6.07;5.40;;;15.30;99.90;;;;;;5110430;27;20517;-58
2022/05/13 02:57:37;;;;;;;10.53;5.10;;;15.30;99.90;;;;;;5103447;28;20443;-58
2022/05/13 03:00:05;;;;;;;6.93;5.50;;;15.20;99.90;;;;;;5093346;28;20439;-60
2022/05/13 03:02:30;;;;;;;8.30;5.80;;;15.20;99.90;;;;;;5110736;27;20211;-58
2022/05/13 03:04:56;;;;;;;6.97;5.40;;;15.30;99.90;;;;;;5104951;28;20427;-60
2022/05/13 03:07:22;;;;;;;9.20;5.93;;;15.20;99.90;;;;;;5112248;27;20188;-59
2022/05/13 03:09:47;;;;;;;5.70;4.93;;;15.20;99.90;;;;;;5098871;28;20639;-60
2022/05/13 03:12:13;;;;;;;10.70;5.70;;;15.20;99.90;;;;;;5107716;27;20669;-60
2022/05/13 03:14:39;;;;;;;7.60;5.80;;;15.20;99.90;;;;;;5107019;28;20192;-58
2022/05/13 03:17:05;;;;;;;8.77;5.80;;;15.20;99.90;;;;;;5108631;28;20185;-59
2022/05/13 03:19:31;;;;;;;6.10;5.53;;;15.20;99.90;;;;;;5110063;27;20547;-60
2022/05/13 03:21:57;;;;;;;7.00;5.50;;;15.10;99.90;;;;;;5106698;28;20459;-59
2022/05/13 03:24:23;;;;;;;7.23;6.17;;;15.10;99.90;;;;;;5109894;28;20212;-59
2022/05/13 03:26:49;;;;;;;8.37;6.80;;;15.10;99.90;;;;;;5110207;27;20451;-59
2022/05/13 03:29:15;;;;;;;7.90;6.33;;;15.00;99.90;;;;;;5105599;28;20184;-59
2022/05/13 03:31:41;;;;;;;7.17;6.10;;;15.00;99.90;;;;;;5109602;27;20455;-59
2022/05/13 03:34:07;;;;;;;10.00;6.43;;;15.00;99.90;;;;;;5110463;28;20173;-59
2022/05/13 03:36:32;;;;;;;7.20;6.33;;;14.90;99.90;;;;;;5092434;28;20185;-58
2022/05/13 03:38:58;;;;;;;6.53;5.87;;;14.90;99.90;;;;;;5095732;28;20193;-60
2022/05/13 03:41:24;;;;;;;9.53;6.30;;;14.90;99.90;;;;;;5107849;27;20706;-59
2022/05/13 03:43:50;;;;;;;7.30;6.40;;;14.90;99.90;;;;;;5095817;28;20185;-59
2022/05/13 03:46:15;;;;;;;10.50;6.57;;;14.80;99.90;;;;;;5105928;28;20630;-59
2022/05/13 03:48:41;;;;;;;8.20;6.37;;;14.80;99.90;;;;;;5099452;28;20251;-60
2022/05/13 03:51:07;;;;;;;6.53;5.70;;;14.80;99.90;;;;;;5102788;27;20632;-59
2022/05/13 03:53:32;;;;;;;7.80;6.50;;;14.80;99.90;;;;;;5106086;28;20189;-58
2022/05/13 03:55:58;;;;;;;6.17;5.57;;;14.80;99.90;;;;;;5102138;27;20212;-58
2022/05/13 03:58:24;;;;;;;7.07;6.03;;;14.80;99.90;;;;;;5105141;28;20807;-55
2022/05/13 04:00:51;;;;;;;7.73;6.33;;;14.80;99.90;;;;;;5108383;28;20208;-56
2022/05/13 04:03:19;;;;;;;7.63;5.93;;;14.80;99.90;;;;;;5108645;28;20196;-59
2022/05/13 04:11:14;;;;;;;11.50;6.90;;;14.70;99.90;;;;;;5105439;27;20448;-64
2022/05/13 04:16:23;;;;;;;8.57;7.40;;;14.70;99.90;;;;;;5102159;28;20294;-56
2022/05/13 04:18:50;;;;;;;7.73;6.90;;;14.70;99.90;;;;;;5104254;27;20878;-58
2022/05/13 04:21:29;;;;;;;7.60;5.70;;;14.60;99.90;;;;;;5104579;28;20314;-57
2022/05/13 04:23:57;;;;;;;9.70;6.50;;;14.70;99.90;;;;;;5100279;27;20963;-61
2022/05/13 04:26:23;;;;;;;9.20;6.87;;;14.70;99.90;;;;;;5105271;27;21063;-59
2022/05/13 04:28:51;;;;;;;12.63;6.70;;;14.70;99.90;;;;;;5101838;27;20518;-57
2022/05/13 04:31:20;;;;;;;9.40;7.27;;;14.70;99.90;;;;;;5099709;27;20535;-54
2022/05/13 04:33:46;;;;;;;7.80;6.50;;;14.70;99.90;;;;;;5094642;27;20434;-55
2022/05/13 04:36:12;;;;;;;8.37;7.10;;;14.70;99.90;;;;;;5096630;27;20452;-58
2022/05/13 04:38:38;;;;;;;9.40;7.30;;;14.80;99.90;;;;;;5099958;28;20427;-60
2022/05/13 04:43:50;;;;;;;12.13;7.00;;;14.80;99.90;;;;;;5105714;27;20579;-59
2022/05/13 04:46:16;;;;;;;9.43;7.90;;;14.80;99.90;;;;;;5098659;28;21200;-56
2022/05/13 04:48:42;;;;;;;8.20;7.13;;;14.90;99.90;;;;;;5096581;28;20234;-58
2022/05/13 04:51:07;;;;;;;10.47;7.73;;;14.90;99.90;;;;;;5097515;28;20439;-61
2022/05/13 04:53:35;;;;;;;11.70;7.70;;;14.90;99.90;;;;;;5100255;28;20172;-57
2022/05/13 04:56:04;;;;;;;13.60;7.60;;;14.90;99.90;;;;;;5102055;28;20182;-60
2022/05/13 04:58:30;;;;;;;13.53;8.33;;;14.90;99.90;;;;;;5098885;28;20861;-54
2022/05/13 05:00:58;;;;;;;9.33;7.77;;;15.00;99.90;;;;;;5085125;28;20486;-50
2022/05/13 05:03:27;;;;;;;12.30;8.20;;;15.00;99.90;;;;;;5098826;28;20730;-53
2022/05/13 05:05:53;;;;;;;12.33;9.80;;;14.90;99.90;;;;;;5096393;28;20439;-53
2022/05/13 05:08:19;;;;;;;10.83;8.23;;;14.90;99.90;;;;;;5099553;28;20503;-55
2022/05/13 05:10:45;;;;;;;13.17;10.10;;;14.90;99.90;;;;;;5100502;28;20438;-54
2022/05/13 05:13:22;;;;;;;13.00;10.20;;;14.90;99.90;;;;;;5099083;28;20430;-58
2022/05/13 05:15:48;;;;;;;15.53;11.60;;;14.90;99.90;;;;;;5098102;28;20970;-57
2022/05/13 05:18:14;;;;;;;12.47;10.00;;;14.80;99.90;;;;;;5080860;28;20455;-58
2022/05/13 05:20:40;;;;;;;21.47;10.60;;;14.90;99.90;;;;;;5092873;28;20216;-57
2022/05/13 05:23:07;;;;;;;13.20;9.93;;;14.90;99.90;;;;;;5103932;28;20789;-54
2022/05/13 05:25:33;;;;;;;15.83;11.07;;;14.90;99.90;;;;;;5099041;28;20953;-57
2022/05/13 05:27:59;;;;;;;11.80;9.80;;;14.90;99.90;;;;;;5098798;28;20427;-54
2022/05/13 05:30:25;;;;;;;15.40;10.23;;;15.00;99.90;;;;;;5103026;28;20418;-56
2022/05/13 05:32:52;;;;;;;13.27;9.90;;;15.00;99.90;;;;;;5105484;28;20177;-54
2022/05/13 05:35:21;;;;;;;19.17;9.53;;;15.10;99.90;;;;;;5106407;28;20831;-56
2022/05/13 05:37:46;;;;;;;14.37;10.07;;;15.10;99.90;;;;;;5109305;28;20399;-57
2022/05/13 05:40:12;;;;;;;16.33;10.50;;;15.10;99.90;;;;;;5105246;28;20438;-55
2022/05/13 05:42:40;;;;;;;13.40;10.20;;;15.10;99.90;;;;;;5109270;28;20730;-55
2022/05/13 05:45:09;;;;;;;13.73;10.47;;;15.10;99.90;;;;;;5107440;28;20463;-56
2022/05/13 05:47:35;;;;;;;13.37;9.80;;;15.10;99.90;;;;;;5107525;28;20521;-55
2022/05/13 05:50:02;;;;;;;16.50;10.67;;;15.10;99.90;;;;;;5106527;28;20483;-60
2022/05/13 05:52:28;;;;;;;14.43;10.23;;;15.10;99.90;;;;;;5102441;28;20438;-53
2022/05/13 05:57:38;;;;;;;14.57;9.60;;;15.10;99.90;;;;;;5100146;28;20234;-57
2022/05/13 06:00:06;;;;;;;15.73;10.60;;;15.10;99.90;;;;;;5101513;28;20923;-58
2022/05/13 06:02:32;;;;;;;22.10;10.93;;;15.20;99.90;;;;;;5083882;28;20204;-58
2022/05/13 06:04:58;;;;;;;18.60;11.17;;;15.20;99.90;;;;;;5097139;28;20434;-56
2022/05/13 06:07:24;;;;;;;14.43;9.63;;;15.30;99.90;;;;;;5105254;28;21162;-53
2022/05/13 06:09:49;;;;;;;13.90;9.27;;;15.30;99.90;;;;;;5104685;27;20173;-54
2022/05/13 06:12:16;;;;;;;12.17;9.70;;;15.40;99.90;;;;;;5109496;28;20451;-58
2022/05/13 06:14:42;;;;;;;13.23;9.23;;;15.40;99.90;;;;;;5104977;27;20181;-59
2022/05/13 06:17:08;;;;;;;13.60;10.00;;;15.40;99.90;;;;;;5109220;28;20430;-59
2022/05/13 06:19:34;;;;;;;15.30;10.13;;;15.50;99.90;;;;;;5107933;28;20771;-59
2022/05/13 06:22:00;;;;;;;12.80;10.10;;;15.50;99.90;;;;;;5111543;28;20549;-58
2022/05/13 06:24:25;;;;;;;16.77;10.30;;;15.60;99.90;;;;;;5103282;28;20901;-57
2022/05/13 06:26:51;;;;;;;13.67;9.93;;;15.60;99.90;;;;;;5107598;28;20242;-59
2022/05/13 06:29:19;;;;;;;14.30;10.13;;;15.70;99.90;;;;;;5110314;28;20250;-58
2022/05/13 06:31:45;;;;;;;14.60;9.90;;;15.70;99.90;;;;;;5103819;28;20644;-61
2022/05/13 06:34:11;;;;;;;11.47;8.90;;;15.70;99.90;;;;;;5111235;28;20970;-59
2022/05/13 06:36:38;;;;;;;23.83;10.87;;;15.80;99.90;;;;;;5111145;28;20410;-59
2022/05/13 06:39:05;;;;;;;13.60;10.00;;;15.80;99.90;;;;;;5112564;28;20405;-58
2022/05/13 06:41:31;;;;;;;10.83;9.10;;;15.80;99.90;;;;;;5111096;28;20468;-58
2022/05/13 06:43:57;;;;;;;16.57;9.20;;;15.80;99.90;;;;;;5095932;27;20967;-59
2022/05/13 06:46:23;;;;;;;15.20;11.00;;;15.80;99.90;;;;;;5112445;28;21076;-58
2022/05/13 06:48:49;;;;;;;16.57;10.50;;;15.80;99.90;;;;;;5094353;28;20173;-59
2022/05/13 06:51:16;;;;;;;14.83;9.83;;;15.90;99.90;;;;;;5111755;28;20445;-59
2022/05/13 06:53:42;;;;;;;23.47;9.93;;;15.90;99.90;;;;;;5110631;28;20455;-60
2022/05/13 06:56:08;;;;;;;12.90;9.97;;;16.00;99.90;;;;;;5108088;28;20412;-59
2022/05/13 06:58:34;;;;;;;11.53;9.30;;;16.00;99.90;;;;;;5095429;28;20192;-59
2022/05/13 07:01:01;;;;;;;13.43;10.07;;;16.00;99.90;;;;;;5110661;27;20196;-59
2022/05/13 07:03:27;;;;;;;13.60;10.07;;;16.10;99.90;;;;;;5095784;28;20415;-59
2022/05/13 07:05:53;;;;;;;20.50;9.90;;;16.10;99.90;;;;;;5110643;28;20421;-60
2022/05/13 07:08:18;;;;;;;14.90;10.30;;;16.10;99.90;;;;;;5112290;28;20226;-59
2022/05/13 07:10:45;;;;;;;17.10;9.43;;;16.10;99.90;;;;;;5109928;28;20234;-61
2022/05/13 07:13:14;;;;;;;20.37;10.27;;;16.20;99.90;;;;;;5087394;28;20173;-60
2022/05/13 07:15:40;;;;;;;13.50;10.20;;;16.20;99.90;;;;;;5104153;28;20431;-58
2022/05/13 07:18:06;;;;;;;13.83;9.70;;;16.20;99.90;;;;;;5087161;27;20442;-59
2022/05/13 07:20:32;;;;;;;13.60;9.53;;;16.10;99.90;;;;;;5107381;28;20470;-59
2022/05/13 07:22:58;;;;;;;12.70;9.60;;;16.10;99.90;;;;;;5109672;28;20996;-59
2022/05/13 07:25:24;;;;;;;12.23;9.03;;;16.10;99.90;;;;;;5106735;28;20427;-59
2022/05/13 07:27:50;;;;;;;12.13;8.90;;;16.10;99.90;;;;;;5105078;28;20328;-59
2022/05/13 07:30:16;;;;;;;13.77;9.10;;;16.10;99.90;;;;;;5108869;28;20431;-59
2022/05/13 07:32:42;;;;;;;15.13;9.23;;;16.00;99.90;;;;;;5107268;28;20484;-59
2022/05/13 07:35:08;;;;;;;11.53;8.73;;;16.00;99.90;;;;;;5106828;28;20431;-59
2022/05/13 07:37:35;;;;;;;11.33;9.20;;;16.00;99.90;;;;;;5107365;28;20177;-59
2022/05/13 07:42:47;;;;;;;10.43;8.80;;;16.00;99.90;;;;;;5103293;28;20462;-58
2022/05/13 07:45:12;;;;;;;20.57;10.00;;;16.00;99.90;;;;;;5089334;28;21079;-58
2022/05/13 07:47:39;;;;;;;11.93;9.03;;;16.00;99.90;;;;;;5108531;28;20182;-59
2022/05/13 07:50:07;;;;;;;12.63;9.40;;;16.00;99.90;;;;;;5107963;28;20173;-59
2022/05/13 07:52:32;;;;;;;14.27;9.40;;;16.00;99.90;;;;;;5118368;27;20480;-60
2022/05/13 07:54:58;;;;;;;14.20;8.97;;;16.00;99.90;;;;;;5106191;28;20455;-59
2022/05/13 07:57:24;;;;;;;15.07;9.43;;;16.00;99.90;;;;;;5110647;28;20169;-59
2022/05/13 08:02:33;;;;;;;16.60;9.93;;;16.00;99.90;;;;;;5110837;28;20734;-58
2022/05/13 08:04:59;;;;;;;14.33;9.37;;;16.00;99.90;;;;;;5109350;28;20463;-58
2022/05/13 08:07:25;;;;;;;16.70;9.83;;;16.00;99.90;;;;;;5110170;28;20173;-59
2022/05/13 08:09:50;;;;;;;14.13;10.43;;;16.10;99.90;;;;;;5113388;27;20192;-60
2022/05/13 08:12:16;;;;;;;14.07;9.60;;;16.10;99.90;;;;;;5101489;28;20928;-59
2022/05/13 08:14:42;;;;;;;13.17;9.20;;;16.20;99.90;;;;;;5096805;28;20181;-58
2022/05/13 08:17:08;;;;;;;12.40;9.80;;;16.20;99.90;;;;;;5102430;28;20188;-60
2022/05/13 08:19:33;;;;;;;15.73;8.60;;;16.20;99.90;;;;;;5106932;27;20184;-59
2022/05/13 08:21:59;;;;;;;18.63;9.90;;;16.20;99.90;;;;;;5107454;28;20576;-59
2022/05/13 08:24:25;;;;;;;18.87;8.60;;;16.20;99.90;;;;;;5101440;28;20730;-59
2022/05/13 08:26:51;;;;;;;11.87;9.17;;;16.20;99.90;;;;;;5102493;27;20523;-59
2022/05/13 08:29:17;;;;;;;11.70;9.17;;;16.20;99.90;;;;;;5107116;28;20250;-59
2022/05/13 08:31:42;;;;;;;13.40;9.40;;;16.30;99.90;;;;;;5103532;28;20787;-59
2022/05/13 08:34:09;;;;;;;12.80;8.90;;;16.30;99.90;;;;;;5098462;28;20197;-59
2022/05/13 08:36:34;;;;;;;11.30;9.10;;;16.40;99.90;;;;;;5106470;28;20178;-59
2022/05/13 08:39:00;;;;;;;18.80;9.63;;;16.40;99.90;;;;;;5110396;28;20411;-59
2022/05/13 08:41:47;;;;;;;11.40;9.17;;;16.40;99.90;;;;;;5108795;28;20288;-60
2022/05/13 08:44:14;;;;;;;13.53;9.30;;;16.40;99.90;;;;;;5116396;27;20522;-60
2022/05/13 08:47:27;;;;;;;9.60;6.87;;;16.40;99.90;;;;;;5089966;28;20479;-60
2022/05/13 08:50:22;;;;;;;5.83;2.30;;;16.40;99.90;;;;;;5104799;28;20435;-58
2022/05/13 08:53:06;;;;;;;1.90;1.80;;;16.20;99.90;;;;;;5106785;28;20590;-59
2022/05/13 08:55:58;;;;;;;1.63;1.53;;;15.90;99.90;;;;;;5099529;28;20431;-59
2022/05/13 08:58:28;;;;;;;8.43;2.00;;;15.70;99.90;;;;;;5101686;28;20431;-60
2022/05/13 09:00:57;;;;;;;3.60;1.63;;;15.50;99.90;;;;;;5110619;27;20435;-60
2022/05/13 09:03:50;;;;;;;3.40;1.60;;;15.40;99.90;;;;;;5109895;28;20461;-60
2022/05/13 09:06:39;;;;;;;3.03;2.03;;;15.20;99.90;;;;;;5104729;28;20493;-60
2022/05/13 09:09:08;;;;;;;2.67;2.43;;;15.10;99.90;;;;;;5084405;28;20449;-61
2022/05/13 09:11:42;;;;;;;10.13;2.50;;;15.10;99.90;;;;;;5106546;28;20880;-59
2022/05/13 09:14:30;;;;;;;2.70;2.43;;;15.10;99.90;;;;;;5104928;28;20491;-60
2022/05/13 09:17:16;;;;;;;3.30;2.63;;;15.20;99.90;;;;;;5103702;28;20423;-60
2022/05/13 09:19:58;;;;;;;3.83;3.10;;;15.30;99.90;;;;;;5086976;28;20430;-60
2022/05/13 09:22:35;;;;;;;5.20;3.47;;;15.40;99.90;;;;;;5104074;28;20571;-61
2022/05/13 09:25:01;;;;;;;7.10;3.50;;;15.40;99.90;;;;;;5080941;28;20457;-59
2022/05/13 09:27:27;;;;;;;8.20;4.77;;;15.40;99.90;;;;;;5102273;28;20458;-59
2022/05/13 09:29:53;;;;;;;10.33;4.20;;;15.50;99.90;;;;;;5088272;28;20172;-60
2022/05/13 09:32:27;;;;;;;8.67;4.57;;;15.50;99.90;;;;;;5106287;28;20200;-60
2022/05/13 09:35:39;;;;;;;9.77;5.20;;;15.50;99.90;;;;;;5099912;28;20205;-59
2022/05/13 09:38:19;;;;;;;11.60;4.70;;;15.60;99.90;;;;;;5094600;28;20435;-59
2022/05/13 09:41:03;;;;;;;10.80;4.60;;;15.70;99.90;;;;;;5086232;28;20530;-59
2022/05/13 09:43:36;;;;;;;9.80;5.13;;;15.70;99.90;;;;;;5103300;28;20480;-59
2022/05/13 09:46:11;;;;;;;8.83;4.87;;;15.80;99.90;;;;;;5109550;28;21156;-58
2022/05/13 09:48:49;;;;;;;12.40;5.37;;;16.00;99.90;;;;;;5111847;28;20418;-59
2022/05/13 09:51:25;;;;;;;9.47;4.73;;;16.10;99.90;;;;;;5111106;28;20485;-59
2022/05/13 09:54:31;;;;;;;11.30;5.30;;;16.30;99.90;;;;;;5096351;28;20473;-60
2022/05/13 09:57:20;;;;;;;13.97;5.40;;;16.50;99.90;;;;;;5085953;28;20431;-60
2022/05/13 09:59:53;;;;;;;6.30;4.63;;;16.70;99.90;;;;;;5113479;28;20422;-60
2022/05/13 10:02:25;;;;;;;8.73;4.67;;;16.80;99.90;;;;;;5111220;28;20458;-58
2022/05/13 10:05:09;;;;;;;9.80;4.80;;;16.70;99.90;;;;;;5111888;28;20406;-59
2022/05/13 10:07:40;;;;;;;14.83;5.47;;;16.70;99.90;;;;;;5100307;28;20528;-59
2022/05/13 10:15:42;;;;;;;12.40;5.50;;;16.50;99.90;;;;;;5109595;28;20425;-59
2022/05/13 10:18:26;;;;;;;8.67;4.73;;;16.60;99.90;;;;;;5109984;28;20425;-60
2022/05/13 10:21:25;;;;;;;8.57;5.17;;;16.80;99.90;;;;;;5113024;28;20491;-62
2022/05/13 10:23:56;;;;;;;8.60;5.00;;;17.10;99.90;;;;;;5107693;28;20454;-59
2022/05/13 10:26:27;;;;;;;10.63;5.47;;;17.20;99.90;;;;;;5106481;28;20399;-58
2022/05/13 10:29:04;;;;;;;7.03;5.50;;;17.30;99.90;;;;;;5108904;28;20415;-58
2022/05/13 10:31:34;;;;;;;14.00;5.60;;;17.30;99.90;;;;;;5104276;28;20506;-58
2022/05/13 10:34:24;;;;;;;10.50;5.43;;;17.10;99.90;;;;;;5112141;28;20402;-59
2022/05/13 10:37:04;;;;;;;10.43;5.27;;;17.00;99.90;;;;;;5110097;28;20942;-59
2022/05/13 10:39:41;;;;;;;14.53;5.13;;;16.90;99.90;;;;;;5098712;28;20425;-60
2022/05/13 10:42:15;;;;;;;12.80;5.60;;;16.90;99.90;;;;;;5110277;28;21407;-59
2022/05/13 10:44:53;;;;;;;16.77;5.70;;;16.90;99.90;;;;;;5110793;28;20427;-60
2022/05/13 10:47:22;;;;;;;12.20;5.80;;;16.90;99.90;;;;;;5113184;28;20398;-58
2022/05/13 10:49:47;;;;;;;17.07;5.60;;;17.00;99.90;;;;;;5111878;28;20403;-58
2022/05/13 10:52:46;;;;;;;7.50;5.07;;;17.00;99.90;;;;;;5110874;28;20450;-61
2022/05/13 10:55:29;;;;;;;13.83;5.67;;;17.10;99.90;;;;;;5103197;28;20214;-59
2022/05/13 10:58:13;;;;;;;11.90;5.47;;;17.50;99.90;;;;;;5111220;28;20414;-59
2022/05/13 11:01:17;;;;;;;12.80;5.30;;;18.00;99.90;;;;;;5096029;28;20966;-59
2022/05/13 11:04:12;;;;;;;16.40;5.30;;;18.20;99.90;;;;;;5092047;28;20521;-59
2022/05/13 11:07:02;;;;;;;12.20;5.43;;;18.40;99.90;;;;;;5102748;28;20414;-59
2022/05/13 11:09:39;;;;;;;13.97;6.17;;;18.30;99.90;;;;;;5108987;28;20427;-60
2022/05/13 11:12:42;;;;;;;11.17;5.60;;;18.10;99.90;;;;;;5095465;28;20520;-62
2022/05/13 11:15:16;;;;;;;14.93;5.30;;;18.10;99.90;;;;;;5082950;28;20465;-60
2022/05/13 11:17:58;;;;;;;10.10;5.40;;;18.00;99.90;;;;;;5104435;27;20426;-57
2022/05/13 11:20:40;;;;;;;13.27;5.63;;;18.00;99.90;;;;;;5105182;27;20431;-55
2022/05/13 11:25:54;;;;;;;7.40;4.67;;;18.10;99.90;;;;;;5102051;28;20465;-55
2022/05/13 11:26:59;;;;;;;8.03;5.37;;;18.60;99.90;;;;;;5103823;28;20463;-59
2022/05/13 11:29:50;;;;;;;10.40;5.03;;;19.10;99.90;;;;;;5107709;28;20426;-63
2022/05/13 11:32:40;;;;;;;10.73;5.10;;;19.60;99.90;;;;;;5103218;27;20835;-58
2022/05/13 11:35:12;;;;;;;16.67;5.37;;;20.10;99.90;;;;;;5100343;28;21042;-59
2022/05/13 11:37:42;;;;;;;8.80;4.83;;;20.30;99.90;;;;;;5104517;28;20457;-59
2022/05/13 11:40:23;;;;;;;9.50;5.30;;;20.10;98.40;;;;;;5100312;28;20426;-59
2022/05/13 11:43:26;;;;;;;9.83;5.83;;;19.80;98.10;;;;;;5100167;28;20876;-59
2022/05/13 11:46:18;;;;;;;12.70;5.37;;;19.50;99.90;;;;;;5102922;28;20461;-60
2022/05/13 11:48:46;;;;;;;13.93;5.40;;;19.20;99.90;;;;;;5103496;28;20416;-59
2022/05/13 11:51:15;;;;;;;8.80;5.33;;;19.00;99.90;;;;;;5099589;27;20454;-60
2022/05/13 11:53:41;;;;;;;9.37;6.30;;;18.90;99.90;;;;;;5092325;28;20435;-58
2022/05/13 11:56:29;;;;;;;13.20;5.83;;;18.70;99.90;;;;;;5102918;28;20801;-60
2022/05/13 11:59:24;;;;;;;12.43;5.93;;;18.50;99.90;;;;;;5100476;28;20226;-59
2022/05/13 12:01:52;;;;;;;11.40;5.27;;;18.40;99.90;;;;;;5079748;28;20466;-61
2022/05/13 12:04:20;;;;;;;12.80;6.60;;;18.30;99.90;;;;;;5099966;27;20427;-60
2022/05/13 12:06:51;;;;;;;11.13;5.57;;;18.30;99.90;;;;;;5102713;27;21068;-59
2022/05/13 12:09:21;;;;;;;9.47;6.40;;;18.40;99.90;;;;;;5102264;28;20510;-59
2022/05/13 12:12:25;;;;;;;9.20;5.43;;;18.40;99.90;;;;;;5097744;28;20471;-59
2022/05/13 12:14:57;;;;;;;11.37;5.83;;;18.50;99.90;;;;;;5076921;28;20438;-59
2022/05/13 12:17:44;;;;;;;9.43;5.77;;;18.50;99.90;;;;;;5098250;28;20424;-60
2022/05/13 12:20:27;;;;;;;7.53;5.40;;;18.60;99.90;;;;;;5095351;28;20461;-59
2022/05/13 12:23:08;;;;;;;8.90;5.80;;;18.70;99.90;;;;;;5103539;28;20519;-60
2022/05/13 12:25:33;;;;;;;8.63;5.90;;;18.80;99.90;;;;;;5103082;27;21263;-61
2022/05/13 12:28:02;;;;;;;7.77;5.30;;;19.00;99.90;;;;;;5099180;28;20946;-60
2022/05/13 12:30:39;;;;;;;13.43;5.17;;;19.10;99.90;;;;;;5100982;28;20177;-60
2022/05/13 12:33:20;;;;;;;8.40;4.43;;;19.20;99.90;;;;;;5081041;27;20422;-61
2022/05/13 12:39:05;;;;;;;7.83;5.57;;;19.20;99.90;;;;;;5099393;28;20462;-59
2022/05/13 12:41:45;;;;;;;11.20;5.10;;;19.40;99.90;;;;;;5100214;28;20522;-59
2022/05/13 12:44:14;;;;;;;12.63;5.73;;;19.60;99.90;;;;;;5101469;28;20423;-60
2022/05/13 12:46:48;;;;;;;12.07;5.30;;;19.90;99.20;;;;;;5101993;28;20426;-61
2022/05/13 12:49:48;;;;;;;17.87;5.80;;;20.20;97.40;;;;;;5100753;28;20416;-59
2022/05/13 12:52:22;;;;;;;10.50;5.37;;;20.30;97.00;;;;;;5100368;28;20451;-60
2022/05/13 12:54:52;;;;;;;10.70;5.73;;;20.30;96.30;;;;;;5093549;28;20994;-60
2022/05/13 12:57:34;;;;;;;9.30;4.50;;;20.20;96.20;;;;;;5100050;28;20458;-60
2022/05/13 13:00:00;;;;;;;7.60;5.40;;;20.10;96.80;;;;;;5099129;27;20486;-60
2022/05/13 13:02:30;;;;;;;7.70;4.90;;;20.20;95.40;;;;;;5101780;28;20466;-59
2022/05/13 13:05:04;;;;;;;8.73;5.00;;;20.10;94.90;;;;;;5097749;28;20510;-60
2022/05/13 13:07:34;;;;;;;9.73;5.00;;;20.10;97.20;;;;;;5096668;28;20806;-60
2022/05/13 13:10:00;;;;;;;9.53;4.63;;;20.10;99.70;;;;;;5100316;28;20424;-59
2022/05/13 13:12:34;;;;;;;13.60;5.90;;;20.10;99.90;;;;;;5101998;28;20459;-60
2022/05/13 13:15:33;;;;;;;9.53;4.60;;;20.30;99.90;;;;;;5099707;27;20182;-61
2022/05/13 13:18:01;;;;;;;9.10;4.97;;;20.50;99.90;;;;;;5045641;28;20426;-59
2022/05/13 13:20:29;;;;;;;12.03;4.77;;;21.00;99.90;;;;;;5097744;28;20521;-62
2022/05/13 13:23:01;;;;;;;13.30;5.20;;;21.30;91.80;;;;;;5089742;28;20546;-58
2022/05/13 13:25:36;;;;;;;11.40;5.70;;;21.60;87.60;;;;;;5099873;27;20422;-58
2022/05/13 13:28:07;;;;;;;8.13;4.87;;;21.90;78.20;;;;;;5103139;28;20467;-58
2022/05/13 13:30:34;;;;;;;8.87;4.70;;;22.30;88.20;;;;;;5101338;28;20494;-58